Terminal Aerodrome Forecast
Issued by NWS Sterling, VA

Current Version | Previous Version | Graphics & Text | Print | Product List | Glossary On
Versions: 1 2 3 4 5 6 7 8 9 10 11 12 13 14 15 16 17 18 19 20 21 22
000
FTUS41 KLWX 010811 AAA
TAFIAD
TAF AMD
KIAD 010811Z 0108/0212 01006KT P6SM -SHRA VCTS BKN040CB
     FM011000 01008KT P6SM VCSH BKN015
     FM011300 02008KT P6SM -SHRA BKN030
     FM011600 04007KT P6SM BKN040
     FM020100 VRB04KT P6SM BKN060=

USA.gov is the U.S. government's official web portal to all federal, state and local government web resources and services.